createdAt,value
2022-10-09T00:01:24.946Z,17.34
2022-10-09T00:04:29.564Z,17.52
2022-10-09T00:07:32.693Z,17.45
2022-10-09T00:10:36.053Z,17.41
2022-10-09T00:13:39.635Z,17.25
2022-10-09T00:16:42.842Z,17.27
2022-10-09T00:19:47.523Z,17.38
2022-10-09T00:22:50.965Z,17.40
2022-10-09T00:25:55.205Z,17.41
2022-10-09T00:28:58.952Z,17.40
2022-10-09T00:32:02.229Z,17.51
2022-10-09T00:35:07.624Z,17.50
2022-10-09T00:38:12.121Z,17.22
2022-10-09T00:41:17.151Z,17.34
2022-10-09T00:44:49.865Z,17.34
2022-10-09T00:47:56.538Z,17.50
2022-10-09T00:51:03.224Z,17.27
2022-10-09T00:54:10.063Z,17.09
2022-10-09T00:57:13.391Z,17.39
2022-10-09T01:00:17.022Z,17.49
2022-10-09T01:03:20.251Z,17.50
2022-10-09T01:06:32.649Z,17.35
2022-10-09T01:09:43.504Z,17.18
2022-10-09T01:12:54.622Z,17.27
2022-10-09T01:16:02.179Z,17.28
2022-10-09T01:19:14.000Z,17.25
2022-10-09T01:22:34.105Z,17.24
2022-10-09T01:25:47.959Z,16.93
2022-10-09T01:28:56.972Z,17.05
2022-10-09T01:32:02.738Z,17.00
2022-10-09T01:35:07.794Z,17.17
2022-10-09T01:38:11.090Z,17.08
2022-10-09T01:41:14.303Z,16.80
2022-10-09T01:44:20.729Z,16.89
2022-10-09T01:47:24.331Z,16.47
2022-10-09T01:50:31.674Z,16.57
2022-10-09T01:53:37.823Z,16.69
2022-10-09T01:56:41.186Z,16.84
2022-10-09T01:59:48.717Z,16.97
2022-10-09T02:02:53.638Z,16.85
2022-10-09T02:05:58.293Z,16.78
2022-10-09T02:09:03.900Z,16.72
2022-10-09T02:12:11.168Z,16.64
2022-10-09T02:15:16.908Z,16.69
2022-10-09T02:18:27.578Z,16.64
2022-10-09T02:21:39.740Z,16.82
2022-10-09T02:24:43.821Z,16.82
2022-10-09T02:27:47.872Z,16.94
2022-10-09T02:31:00.313Z,16.71
2022-10-09T02:34:06.544Z,16.77
2022-10-09T02:37:09.962Z,16.24
2022-10-09T02:40:13.273Z,16.56
2022-10-09T02:43:16.451Z,16.47
2022-10-09T02:46:21.345Z,16.12
2022-10-09T02:49:24.628Z,16.39
2022-10-09T02:52:27.982Z,16.21
2022-10-09T02:55:31.180Z,16.16
2022-10-09T02:58:35.776Z,16.21
2022-10-09T03:01:41.554Z,16.20
2022-10-09T03:04:44.912Z,16.36
2022-10-09T03:07:51.558Z,16.07
2022-10-09T03:10:54.982Z,16.26
2022-10-09T03:13:58.264Z,16.13
2022-10-09T03:17:02.945Z,16.34
2022-10-09T03:20:07.899Z,16.16
2022-10-09T03:23:11.246Z,16.01
2022-10-09T03:26:16.461Z,16.01
2022-10-09T03:29:19.785Z,15.98
2022-10-09T03:32:24.544Z,16.06
2022-10-09T03:35:27.749Z,16.02
2022-10-09T03:38:30.978Z,16.10
2022-10-09T03:41:34.221Z,15.85
2022-10-09T03:44:37.438Z,15.81
2022-10-09T03:47:42.072Z,15.97
2022-10-09T03:50:45.405Z,16.08
2022-10-09T03:53:48.635Z,16.04
2022-10-09T03:56:51.872Z,15.79
2022-10-09T03:59:55.086Z,15.77
2022-10-09T04:02:59.792Z,15.93
2022-10-09T04:06:03.118Z,16.08
2022-10-09T04:09:06.377Z,16.07
2022-10-09T04:12:09.650Z,15.99
2022-10-09T04:15:12.857Z,15.80
2022-10-09T04:18:17.426Z,15.89
2022-10-09T04:21:20.698Z,16.11
2022-10-09T04:24:24.034Z,15.73
2022-10-09T04:27:27.203Z,16.05
2022-10-09T04:30:30.431Z,15.65
2022-10-09T04:33:35.143Z,15.71
2022-10-09T04:36:38.402Z,15.56
2022-10-09T04:39:41.606Z,15.69
2022-10-09T04:42:44.834Z,15.44
2022-10-09T04:45:48.112Z,15.50
2022-10-09T04:48:52.898Z,15.89
2022-10-09T04:51:56.095Z,15.98
2022-10-09T04:54:59.350Z,15.89
2022-10-09T04:58:02.556Z,15.78
2022-10-09T05:01:08.314Z,15.95
2022-10-09T05:04:12.958Z,16.08
2022-10-09T05:07:16.159Z,16.26
2022-10-09T05:10:19.407Z,16.39
2022-10-09T05:13:22.747Z,16.47
2022-10-09T05:16:27.863Z,16.57
2022-10-09T05:19:32.722Z,16.66
2022-10-09T05:22:35.859Z,16.48
2022-10-09T05:25:39.112Z,16.59
2022-10-09T05:28:42.942Z,16.56
2022-10-09T05:31:49.522Z,16.85
2022-10-09T05:34:54.562Z,16.67
2022-10-09T05:37:57.835Z,16.80
2022-10-09T05:41:02.576Z,16.68
2022-10-09T05:44:05.963Z,16.70
2022-10-09T05:47:09.154Z,16.66
2022-10-09T05:50:13.790Z,16.89
2022-10-09T05:53:17.019Z,17.05
2022-10-09T05:56:23.158Z,17.24
2022-10-09T05:59:26.442Z,17.48
2022-10-09T06:02:29.775Z,17.28
2022-10-09T06:05:34.417Z,17.79
2022-10-09T06:08:39.385Z,18.09
2022-10-09T06:11:43.916Z,17.92
2022-10-09T06:14:47.744Z,18.44
2022-10-09T06:17:50.861Z,18.29
2022-10-09T06:20:56.771Z,18.48
2022-10-09T06:24:02.943Z,18.71
2022-10-09T06:27:06.401Z,19.05
2022-10-09T06:30:10.950Z,19.27
2022-10-09T06:33:14.186Z,18.83
2022-10-09T06:36:20.581Z,19.18
2022-10-09T06:39:26.475Z,19.50
2022-10-09T06:42:29.655Z,19.69
2022-10-09T06:45:38.765Z,19.52
2022-10-09T06:48:42.519Z,19.84
2022-10-09T06:51:47.083Z,19.93
2022-10-09T06:54:50.306Z,20.18
2022-10-09T06:57:53.502Z,20.74
2022-10-09T07:01:07.958Z,20.88
2022-10-09T07:04:13.054Z,20.63
2022-10-09T07:07:17.604Z,21.04
2022-10-09T07:10:25.121Z,21.38
2022-10-09T07:13:30.962Z,21.33
2022-10-09T07:16:36.097Z,21.61
2022-10-09T07:19:39.462Z,21.93
2022-10-09T07:22:44.052Z,21.83
2022-10-09T07:25:47.241Z,22.01
2022-10-09T07:28:50.998Z,22.30
2022-10-09T07:31:54.171Z,22.45
2022-10-09T07:34:57.459Z,22.86
2022-10-09T07:38:02.107Z,22.76
2022-10-09T07:41:07.644Z,22.79
2022-10-09T07:44:13.284Z,23.20
2022-10-09T07:47:16.527Z,23.04
2022-10-09T07:50:19.773Z,22.78
2022-10-09T07:53:25.093Z,23.25
2022-10-09T07:56:30.274Z,23.29
2022-10-09T07:59:33.526Z,23.41
2022-10-09T08:02:36.757Z,23.19
2022-10-09T08:05:41.235Z,23.47
2022-10-09T08:08:46.615Z,23.57
2022-10-09T08:11:49.862Z,23.90
2022-10-09T08:14:53.159Z,23.94
2022-10-09T08:17:57.209Z,23.86
2022-10-09T08:21:01.823Z,24.05
2022-10-09T08:24:07.073Z,24.21
2022-10-09T08:27:10.338Z,24.31
2022-10-09T08:30:19.495Z,24.37
2022-10-09T08:33:23.542Z,24.67
2022-10-09T08:36:27.244Z,25.03
2022-10-09T08:39:33.045Z,25.62
2022-10-09T08:42:43.878Z,25.75
2022-10-09T08:45:50.750Z,25.95
2022-10-09T08:48:56.205Z,25.57
2022-10-09T08:52:12.540Z,25.33
2022-10-09T08:55:22.671Z,25.45
2022-10-09T08:58:30.766Z,24.91
2022-10-09T09:01:40.893Z,25.35
2022-10-09T09:04:57.972Z,25.48
2022-10-09T09:08:07.201Z,25.83
2022-10-09T09:11:22.507Z,25.72
2022-10-09T09:14:36.162Z,26.12
2022-10-09T09:17:47.609Z,25.50
2022-10-09T09:20:54.291Z,25.58
2022-10-09T09:24:01.739Z,25.56
2022-10-09T09:27:14.302Z,26.00
2022-10-09T09:30:20.997Z,26.52
2022-10-09T09:33:35.864Z,26.79
2022-10-09T09:36:45.836Z,27.02
2022-10-09T09:43:20.104Z,27.82
2022-10-09T09:46:28.503Z,27.46
2022-10-09T09:49:32.870Z,27.50
2022-10-09T09:52:41.712Z,27.84
2022-10-09T09:55:45.099Z,27.25
2022-10-09T09:58:54.320Z,26.23
2022-10-09T10:02:02.513Z,26.85
2022-10-09T10:05:18.468Z,27.06
2022-10-09T10:08:35.850Z,27.02
2022-10-09T10:11:45.885Z,27.26
2022-10-09T10:14:52.282Z,27.30
2022-10-09T10:18:04.437Z,27.57
2022-10-09T10:21:12.311Z,27.92
2022-10-09T10:24:21.399Z,28.33
2022-10-09T10:27:29.015Z,28.49
2022-10-09T10:30:36.794Z,28.79
2022-10-09T10:33:40.282Z,28.80
2022-10-09T10:36:43.738Z,28.86
2022-10-09T10:39:51.530Z,28.64
2022-10-09T10:43:04.871Z,28.64
2022-10-09T10:46:16.903Z,28.90
2022-10-09T10:49:22.292Z,28.94
2022-10-09T10:52:42.564Z,28.54
2022-10-09T10:55:54.680Z,28.60
2022-10-09T10:59:19.696Z,28.67
2022-10-09T11:02:51.696Z,28.60
2022-10-09T11:06:00.678Z,28.47
2022-10-09T11:09:11.564Z,28.55
2022-10-09T11:12:43.367Z,28.42
2022-10-09T11:16:00.557Z,28.32
2022-10-09T11:19:22.252Z,28.27
2022-10-09T11:22:41.311Z,28.34
2022-10-09T11:25:54.922Z,28.54
2022-10-09T11:29:04.161Z,28.38
2022-10-09T11:32:15.211Z,28.45
2022-10-09T11:35:23.433Z,28.83
2022-10-09T11:38:30.139Z,28.53
2022-10-09T11:41:35.802Z,28.96
2022-10-09T11:44:46.232Z,29.26
2022-10-09T11:47:56.282Z,29.19
2022-10-09T11:51:05.843Z,28.76
2022-10-09T11:54:15.056Z,28.53
2022-10-09T11:57:28.433Z,28.56
2022-10-09T12:00:33.930Z,28.60
2022-10-09T12:03:39.597Z,28.48
2022-10-09T12:06:53.108Z,28.25
2022-10-09T12:10:01.710Z,28.17
2022-10-09T12:13:08.483Z,27.96
2022-10-09T12:16:28.106Z,28.13
2022-10-09T12:19:37.593Z,28.31
2022-10-09T12:23:07.272Z,28.24
2022-10-09T12:26:13.755Z,28.04
2022-10-09T12:29:24.759Z,28.28
2022-10-09T12:32:31.550Z,28.13
2022-10-09T12:35:37.495Z,28.29
2022-10-09T12:38:43.015Z,28.43
2022-10-09T12:41:50.358Z,28.60
2022-10-09T12:44:56.600Z,28.41
2022-10-09T12:48:01.178Z,28.12
2022-10-09T12:51:15.127Z,28.26
2022-10-09T12:54:19.865Z,28.08
2022-10-09T12:57:24.081Z,28.03
2022-10-09T13:00:31.603Z,28.38
2022-10-09T13:03:38.889Z,28.32
2022-10-09T13:06:48.545Z,28.65
2022-10-09T13:10:00.619Z,28.73
2022-10-09T13:13:03.893Z,27.72
2022-10-09T13:16:10.810Z,26.93
2022-10-09T13:19:28.495Z,27.11
2022-10-09T13:22:33.675Z,27.36
2022-10-09T13:25:44.903Z,27.43
2022-10-09T13:28:48.415Z,27.60
2022-10-09T13:31:51.706Z,27.34
2022-10-09T13:34:55.895Z,27.20
2022-10-09T13:37:59.093Z,27.01
2022-10-09T13:41:03.763Z,27.26
2022-10-09T13:44:07.019Z,27.09
2022-10-09T13:47:10.297Z,27.38
2022-10-09T13:50:15.327Z,27.69
2022-10-09T13:53:18.715Z,27.38
2022-10-09T13:56:23.246Z,27.18
2022-10-09T13:59:26.578Z,27.10
2022-10-09T14:02:30.136Z,27.33
2022-10-09T14:05:35.516Z,27.33
2022-10-09T14:08:38.697Z,27.50
2022-10-09T14:11:43.749Z,27.51
2022-10-09T14:14:46.942Z,27.45
2022-10-09T14:17:50.772Z,27.26
2022-10-09T14:20:54.394Z,27.49
2022-10-09T14:23:59.655Z,27.36
2022-10-09T14:27:04.300Z,27.47
2022-10-09T14:30:08.866Z,27.30
2022-10-09T14:33:12.927Z,27.04
2022-10-09T14:36:19.546Z,26.79
2022-10-09T14:39:22.800Z,26.85
2022-10-09T14:42:27.367Z,27.04
2022-10-09T14:45:30.626Z,26.95
2022-10-09T14:48:34.226Z,26.60
2022-10-09T14:51:39.583Z,26.44
2022-10-09T14:54:45.269Z,26.48
2022-10-09T14:57:49.843Z,26.40
2022-10-09T15:00:53.061Z,26.45
2022-10-09T15:03:56.483Z,26.09
2022-10-09T15:06:59.790Z,25.98
2022-10-09T15:10:03.049Z,25.70
2022-10-09T15:13:07.674Z,25.65
2022-10-09T15:16:13.578Z,25.42
2022-10-09T15:19:16.839Z,25.48
2022-10-09T15:22:20.055Z,25.21
2022-10-09T15:25:23.319Z,25.22
2022-10-09T15:28:28.580Z,25.27
2022-10-09T15:31:33.601Z,25.00
2022-10-09T15:34:40.761Z,24.98
2022-10-09T15:40:54.350Z,24.78
2022-10-09T15:44:00.617Z,24.70
2022-10-09T15:47:03.848Z,24.60
2022-10-09T15:50:08.398Z,24.62
2022-10-09T15:53:15.941Z,24.56
2022-10-09T15:56:22.439Z,24.54
2022-10-09T15:59:27.170Z,24.47
2022-10-09T16:02:30.348Z,24.46
2022-10-09T16:05:38.462Z,24.35
2022-10-09T16:08:42.396Z,24.38
2022-10-09T16:11:45.629Z,24.34
2022-10-09T16:14:50.312Z,24.30
2022-10-09T16:17:54.446Z,24.16
2022-10-09T16:20:57.755Z,24.18
2022-10-09T16:24:01.608Z,24.17
2022-10-09T16:27:05.026Z,24.09
2022-10-09T16:30:12.200Z,24.06
2022-10-09T16:33:15.508Z,23.98
2022-10-09T16:36:19.617Z,23.88
2022-10-09T16:39:23.744Z,23.86
2022-10-09T16:42:26.995Z,23.79
2022-10-09T16:45:31.620Z,23.65
2022-10-09T16:48:34.809Z,23.57
2022-10-09T16:51:38.186Z,23.56
2022-10-09T16:54:41.545Z,23.55
2022-10-09T16:57:45.061Z,23.44
2022-10-09T17:00:49.698Z,23.45
2022-10-09T17:03:54.676Z,23.16
2022-10-09T17:06:58.163Z,23.15
2022-10-09T17:10:01.539Z,23.06
2022-10-09T17:13:04.762Z,23.17
2022-10-09T17:16:15.704Z,23.17
2022-10-09T17:19:21.191Z,23.13
2022-10-09T17:22:24.419Z,23.14
2022-10-09T17:25:28.947Z,23.02
2022-10-09T17:28:32.352Z,22.81
2022-10-09T17:31:37.414Z,22.90
2022-10-09T17:34:45.776Z,22.83
2022-10-09T17:37:49.087Z,22.85
2022-10-09T17:40:53.116Z,22.78
2022-10-09T17:43:57.630Z,22.68
2022-10-09T17:47:02.285Z,22.64
2022-10-09T17:50:06.268Z,22.59
2022-10-09T17:53:09.930Z,22.55
2022-10-09T17:56:13.094Z,22.54
2022-10-09T17:59:16.814Z,22.50
2022-10-09T18:02:21.435Z,22.41
2022-10-09T18:05:24.626Z,22.39
2022-10-09T18:08:28.560Z,22.38
2022-10-09T18:11:32.109Z,22.16
2022-10-09T18:14:35.435Z,22.24
2022-10-09T18:17:40.849Z,22.21
2022-10-09T18:20:44.116Z,22.13
2022-10-09T18:23:48.245Z,22.06
2022-10-09T18:26:51.518Z,22.03
2022-10-09T18:29:54.775Z,22.03
2022-10-09T18:32:59.992Z,21.44
2022-10-09T18:36:05.095Z,21.44
2022-10-09T18:39:11.233Z,21.13
2022-10-09T18:42:14.437Z,20.89
2022-10-09T18:45:17.749Z,20.58
2022-10-09T18:48:24.324Z,20.90
2022-10-09T18:51:29.737Z,21.14
2022-10-09T18:54:33.078Z,21.00
2022-10-09T18:57:36.416Z,21.31
2022-10-09T19:00:40.195Z,21.35
2022-10-09T19:03:47.621Z,21.28
2022-10-09T19:06:55.367Z,21.20
2022-10-09T19:09:58.548Z,21.03
2022-10-09T19:13:01.879Z,21.15
2022-10-09T19:16:06.251Z,21.04
2022-10-09T19:19:10.882Z,21.02
2022-10-09T19:22:16.431Z,21.10
2022-10-09T19:25:20.743Z,21.15
2022-10-09T19:28:25.776Z,21.20
2022-10-09T19:31:29.064Z,21.24
2022-10-09T19:34:33.718Z,21.03
2022-10-09T19:37:36.946Z,21.08
2022-10-09T19:40:40.164Z,21.09
2022-10-09T19:43:43.383Z,21.08
2022-10-09T19:46:46.926Z,21.15
2022-10-09T19:49:51.584Z,21.12
2022-10-09T19:52:55.090Z,20.89
2022-10-09T19:55:58.359Z,20.82
2022-10-09T19:59:03.608Z,20.90
2022-10-09T20:02:07.971Z,20.80
2022-10-09T20:05:12.565Z,21.04
2022-10-09T20:08:15.783Z,20.76
2022-10-09T20:11:20.646Z,20.77
2022-10-09T20:14:23.902Z,20.64
2022-10-09T20:17:27.119Z,20.55
2022-10-09T20:20:31.743Z,20.66
2022-10-09T20:23:35.023Z,20.64
2022-10-09T20:26:42.805Z,20.45
2022-10-09T20:29:46.438Z,20.16
2022-10-09T20:32:50.042Z,20.12
2022-10-09T20:35:56.190Z,20.32
2022-10-09T20:39:01.146Z,20.33
2022-10-09T20:42:04.513Z,20.06
2022-10-09T20:45:08.158Z,20.20
2022-10-09T20:48:11.803Z,20.07
2022-10-09T20:51:17.207Z,19.99
2022-10-09T20:54:22.408Z,19.96
2022-10-09T20:57:25.546Z,19.43
2022-10-09T21:00:28.978Z,19.94
2022-10-09T21:03:32.251Z,19.90
2022-10-09T21:06:36.851Z,19.87
2022-10-09T21:09:40.044Z,19.71
2022-10-09T21:12:43.256Z,19.85
2022-10-09T21:15:49.727Z,19.62
2022-10-09T21:18:55.928Z,19.75
2022-10-09T21:22:00.483Z,19.57
2022-10-09T21:25:03.701Z,19.34
2022-10-09T21:28:07.075Z,19.30
2022-10-09T21:31:11.448Z,19.59
2022-10-09T21:34:14.691Z,19.71
2022-10-09T21:37:21.826Z,18.87
2022-10-09T21:40:25.438Z,19.34
2022-10-09T21:43:28.616Z,19.36
2022-10-09T21:46:32.607Z,19.65
2022-10-09T21:49:36.082Z,19.42
2022-10-09T21:52:40.683Z,19.47
2022-10-09T21:55:43.980Z,19.16
2022-10-09T21:58:49.056Z,19.17
2022-10-09T22:01:52.496Z,19.07
2022-10-09T22:04:57.402Z,18.99
2022-10-09T22:08:02.084Z,19.19
2022-10-09T22:11:05.696Z,19.26
2022-10-09T22:14:09.073Z,19.34
2022-10-09T22:17:12.316Z,19.25
2022-10-09T22:20:15.576Z,19.10
2022-10-09T22:23:21.900Z,19.40
2022-10-09T22:26:25.120Z,19.43
2022-10-09T22:29:29.103Z,19.55
2022-10-09T22:32:32.331Z,18.97
2022-10-09T22:35:35.518Z,19.08
2022-10-09T22:38:40.769Z,19.12
2022-10-09T22:41:44.001Z,19.12
2022-10-09T22:44:47.248Z,18.73
2022-10-09T22:47:50.579Z,18.87
2022-10-09T22:50:53.754Z,18.54
2022-10-09T22:53:59.682Z,18.62
2022-10-09T22:57:02.800Z,18.80
2022-10-09T23:00:07.239Z,18.74
2022-10-09T23:03:10.513Z,18.53
2022-10-09T23:06:15.576Z,18.52
2022-10-09T23:09:20.898Z,18.77
2022-10-09T23:12:24.058Z,18.64
2022-10-09T23:15:27.385Z,19.00
2022-10-09T23:18:31.071Z,19.01
2022-10-09T23:21:34.784Z,18.85
2022-10-09T23:24:39.343Z,18.34
2022-10-09T23:27:42.545Z,18.36
2022-10-09T23:30:45.739Z,18.43
2022-10-09T23:33:49.233Z,18.65
2022-10-09T23:36:52.383Z,18.78
2022-10-09T23:39:56.948Z,18.92
2022-10-09T23:43:00.159Z,18.77
2022-10-09T23:46:05.203Z,18.58
2022-10-09T23:49:08.456Z,18.53
2022-10-09T23:52:11.713Z,18.70
2022-10-09T23:55:16.429Z,18.50
2022-10-09T23:58:21.055Z,18.74
